sensor_id;sensor_type;location;lat;lon;timestamp;pressure;altitude;pressure_sealevel;temperature;humidity
8294;BME280;4185;41.506;24.938;2023-11-18T00:01:31;92536.50;;;9.56;100.00
8294;BME280;4185;41.506;24.938;2023-11-18T00:03:58;92542.41;;;9.60;100.00
8294;BME280;4185;41.506;24.938;2023-11-18T00:06:25;92531.56;;;9.60;100.00
8294;BME280;4185;41.506;24.938;2023-11-18T00:08:52;92535.50;;;9.59;100.00
8294;BME280;4185;41.506;24.938;2023-11-18T00:11:18;92537.03;;;9.49;100.00
8294;BME280;4185;41.506;24.938;2023-11-18T00:13:45;92543.47;;;9.46;100.00
8294;BME280;4185;41.506;24.938;2023-11-18T00:16:14;92554.06;;;9.50;100.00
8294;BME280;4185;41.506;24.938;2023-11-18T00:18:42;92551.34;;;9.50;100.00
8294;BME280;4185;41.506;24.938;2023-11-18T00:21:09;92544.47;;;9.43;100.00
8294;BME280;4185;41.506;24.938;2023-11-18T00:23:37;92539.31;;;9.40;100.00
8294;BME280;4185;41.506;24.938;2023-11-18T00:26:04;92541.25;;;9.45;100.00
8294;BME280;4185;41.506;24.938;2023-11-18T00:28:32;92545.94;;;9.44;100.00
8294;BME280;4185;41.506;24.938;2023-11-18T00:30:59;92548.66;;;9.44;100.00
8294;BME280;4185;41.506;24.938;2023-11-18T00:33:27;92545.94;;;9.44;100.00
8294;BME280;4185;41.506;24.938;2023-11-18T00:35:54;92530.69;;;9.41;100.00
8294;BME280;4185;41.506;24.938;2023-11-18T00:38:20;92517.66;;;9.34;100.00
8294;BME280;4185;41.506;24.938;2023-11-18T00:40:47;92501.16;;;9.32;100.00
8294;BME280;4185;41.506;24.938;2023-11-18T00:43:14;92496.22;;;9.36;100.00
8294;BME280;4185;41.506;24.938;2023-11-18T00:45:41;92507.06;;;9.36;100.00
8294;BME280;4185;41.506;24.938;2023-11-18T00:48:09;92513.22;;;9.37;100.00
8294;BME280;4185;41.506;24.938;2023-11-18T00:50:37;92497.69;;;9.37;100.00
8294;BME280;4185;41.506;24.938;2023-11-18T00:53:04;92504.13;;;9.34;100.00
8294;BME280;4185;41.506;24.938;2023-11-18T00:55:31;92508.28;;;9.35;100.00
8294;BME280;4185;41.506;24.938;2023-11-18T00:57:58;92494.53;;;9.33;100.00
8294;BME280;4185;41.506;24.938;2023-11-18T01:00:25;92484.94;;;9.27;100.00
8294;BME280;4185;41.506;24.938;2023-11-18T01:02:53;92483.72;;;9.22;100.00
8294;BME280;4185;41.506;24.938;2023-11-18T01:05:22;92485.22;;;9.23;100.00
8294;BME280;4185;41.506;24.938;2023-11-18T01:07:50;92493.81;;;9.27;100.00
8294;BME280;4185;41.506;24.938;2023-11-18T01:10:16;92485.44;;;9.25;100.00
8294;BME280;4185;41.506;24.938;2023-11-18T01:12:44;92485.44;;;9.25;100.00
8294;BME280;4185;41.506;24.938;2023-11-18T01:15:11;92480.72;;;9.31;100.00
8294;BME280;4185;41.506;24.938;2023-11-18T01:17:38;92483.63;;;9.39;100.00
8294;BME280;4185;41.506;24.938;2023-11-18T01:20:06;92477.22;;;9.42;100.00
8294;BME280;4185;41.506;24.938;2023-11-18T01:22:36;92473.06;;;9.35;100.00
8294;BME280;4185;41.506;24.938;2023-11-18T01:25:05;92452.91;;;9.25;100.00
8294;BME280;4185;41.506;24.938;2023-11-18T01:27:34;92448.72;;;9.30;100.00
8294;BME280;4185;41.506;24.938;2023-11-18T01:30:01;92457.34;;;9.28;100.00
8294;BME280;4185;41.506;24.938;2023-11-18T01:32:29;92462.53;;;9.26;100.00
8294;BME280;4185;41.506;24.938;2023-11-18T01:34:56;92467.75;;;9.13;100.00
8294;BME280;4185;41.506;24.938;2023-11-18T01:37:23;92466.78;;;9.16;100.00
8294;BME280;4185;41.506;24.938;2023-11-18T01:39:50;92456.88;;;9.24;100.00
8294;BME280;4185;41.506;24.938;2023-11-18T01:42:18;92452.38;;;9.32;100.00
8294;BME280;4185;41.506;24.938;2023-11-18T01:44:44;92448.97;;;9.32;100.00
8294;BME280;4185;41.506;24.938;2023-11-18T01:47:12;92453.09;;;9.38;100.00
8294;BME280;4185;41.506;24.938;2023-11-18T01:49:40;92444.41;;;9.45;100.00
8294;BME280;4185;41.506;24.938;2023-11-18T01:52:07;92442.94;;;9.44;100.00
8294;BME280;4185;41.506;24.938;2023-11-18T01:54:36;92437.06;;;9.40;100.00
8294;BME280;4185;41.506;24.938;2023-11-18T01:57:04;92447.91;;;9.40;100.00
8294;BME280;4185;41.506;24.938;2023-11-18T01:59:33;92438.81;;;9.38;100.00
8294;BME280;4185;41.506;24.938;2023-11-18T02:02:01;92440.84;;;9.32;100.00
8294;BME280;4185;41.506;24.938;2023-11-18T02:04:28;92436.41;;;9.29;100.00
8294;BME280;4185;41.506;24.938;2023-11-18T02:06:55;92432.03;;;9.20;100.00
8294;BME280;4185;41.506;24.938;2023-11-18T02:09:23;92434.28;;;9.16;100.00
8294;BME280;4185;41.506;24.938;2023-11-18T02:11:57;92431.56;;;9.16;100.00
8294;BME280;4185;41.506;24.938;2023-11-18T02:14:28;92428.84;;;9.16;100.00
8294;BME280;4185;41.506;24.938;2023-11-18T02:16:59;92419.00;;;9.13;100.00
8294;BME280;4185;41.506;24.938;2023-11-18T02:19:29;92424.41;;;9.13;100.00
8294;BME280;4185;41.506;24.938;2023-11-18T02:21:57;92420.75;;;9.11;100.00
8294;BME280;4185;41.506;24.938;2023-11-18T02:24:25;92412.59;;;9.16;100.00
8294;BME280;4185;41.506;24.938;2023-11-18T02:26:56;92400.28;;;9.15;100.00
8294;BME280;4185;41.506;24.938;2023-11-18T02:29:24;92405.19;;;9.17;100.00
8294;BME280;4185;41.506;24.938;2023-11-18T02:31:54;92408.41;;;9.15;100.00
8294;BME280;4185;41.506;24.938;2023-11-18T02:34:27;92404.25;;;9.14;100.00
8294;BME280;4185;41.506;24.938;2023-11-18T02:36:56;92410.19;;;9.07;100.00
8294;BME280;4185;41.506;24.938;2023-11-18T02:39:30;92400.13;;;9.02;100.00
8294;BME280;4185;41.506;24.938;2023-11-18T02:42:01;92407.75;;;9.04;100.00
8294;BME280;4185;41.506;24.938;2023-11-18T02:44:30;92402.84;;;9.02;100.00
8294;BME280;4185;41.506;24.938;2023-11-18T02:46:58;92410.22;;;9.02;100.00
8294;BME280;4185;41.506;24.938;2023-11-18T02:49:26;92397.69;;;8.99;100.00
8294;BME280;4185;41.506;24.938;2023-11-18T02:51:53;92404.28;;;9.03;100.00
8294;BME280;4185;41.506;24.938;2023-11-18T02:54:20;92402.75;;;9.13;100.00
8294;BME280;4185;41.506;24.938;2023-11-18T02:56:47;92404.72;;;9.18;100.00
8294;BME280;4185;41.506;24.938;2023-11-18T02:59:15;92409.13;;;9.21;100.00
8294;BME280;4185;41.506;24.938;2023-11-18T03:01:42;92415.50;;;9.24;100.00
8294;BME280;4185;41.506;24.938;2023-11-18T03:04:10;92413.81;;;9.21;100.00
8294;BME280;4185;41.506;24.938;2023-11-18T03:06:37;92413.31;;;9.17;100.00
8294;BME280;4185;41.506;24.938;2023-11-18T03:09:03;92411.84;;;9.16;100.00
8294;BME280;4185;41.506;24.938;2023-11-18T03:11:32;92414.53;;;9.21;100.00
8294;BME280;4185;41.506;24.938;2023-11-18T03:13:59;92407.19;;;9.16;100.00
8294;BME280;4185;41.506;24.938;2023-11-18T03:16:27;92410.84;;;9.19;100.00
8294;BME280;4185;41.506;24.938;2023-11-18T03:18:54;92403.00;;;9.15;100.00
8294;BME280;4185;41.506;24.938;2023-11-18T03:21:21;92393.13;;;9.18;100.00
8294;BME280;4185;41.506;24.938;2023-11-18T03:23:48;92383.06;;;9.13;100.00
8294;BME280;4185;41.506;24.938;2023-11-18T03:26:15;92385.53;;;9.11;100.00
8294;BME280;4185;41.506;24.938;2023-11-18T03:28:41;92390.47;;;9.12;100.00
8294;BME280;4185;41.506;24.938;2023-11-18T03:31:08;92379.16;;;9.08;100.00
8294;BME280;4185;41.506;24.938;2023-11-18T03:33:38;92373.97;;;9.10;100.00
8294;BME280;4185;41.506;24.938;2023-11-18T03:36:06;92371.25;;;9.10;100.00
8294;BME280;4185;41.506;24.938;2023-11-18T03:38:33;92374.47;;;9.09;100.00
8294;BME280;4185;41.506;24.938;2023-11-18T03:41:00;92387.31;;;9.03;100.00
8294;BME280;4185;41.506;24.938;2023-11-18T03:43:27;92373.34;;;8.93;100.00
8294;BME280;4185;41.506;24.938;2023-11-18T03:45:54;92367.22;;;8.87;100.00
8294;BME280;4185;41.506;24.938;2023-11-18T03:48:22;92365.00;;;8.91;100.00
8294;BME280;4185;41.506;24.938;2023-11-18T03:50:51;92361.78;;;8.93;100.00
8294;BME280;4185;41.506;24.938;2023-11-18T03:53:19;92354.16;;;8.91;100.00
8294;BME280;4185;41.506;24.938;2023-11-18T03:55:46;92353.16;;;8.94;100.00
8294;BME280;4185;41.506;24.938;2023-11-18T03:58:12;92362.50;;;8.93;100.00
8294;BME280;4185;41.506;24.938;2023-11-18T04:00:39;92368.47;;;8.86;100.00
8294;BME280;4185;41.506;24.938;2023-11-18T04:03:06;92373.44;;;8.77;100.00
8294;BME280;4185;41.506;24.938;2023-11-18T04:05:33;92381.81;;;8.73;100.00
8294;BME280;4185;41.506;24.938;2023-11-18T04:08:04;92375.13;;;8.80;100.00
8294;BME280;4185;41.506;24.938;2023-11-18T04:10:31;92378.31;;;8.89;100.00
8294;BME280;4185;41.506;24.938;2023-11-18T04:12:58;92370.41;;;8.91;100.00
8294;BME280;4185;41.506;24.938;2023-11-18T04:15:25;92355.88;;;8.94;100.00
8294;BME280;4185;41.506;24.938;2023-11-18T04:17:52;92356.81;;;8.97;100.00
8294;BME280;4185;41.506;24.938;2023-11-18T04:20:19;92349.44;;;8.97;100.00
8294;BME280;4185;41.506;24.938;2023-11-18T04:22:46;92337.34;;;8.98;100.00
8294;BME280;4185;41.506;24.938;2023-11-18T04:25:14;92331.50;;;8.94;100.00
8294;BME280;4185;41.506;24.938;2023-11-18T04:27:41;92331.03;;;8.90;100.00
8294;BME280;4185;41.506;24.938;2023-11-18T04:30:09;92332.31;;;8.84;100.00
8294;BME280;4185;41.506;24.938;2023-11-18T04:32:36;92331.09;;;8.79;100.00
8294;BME280;4185;41.506;24.938;2023-11-18T04:35:03;92325.69;;;8.79;100.00
8294;BME280;4185;41.506;24.938;2023-11-18T04:37:34;92331.78;;;8.85;100.00
8294;BME280;4185;41.506;24.938;2023-11-18T04:40:01;92328.34;;;8.85;100.00
8294;BME280;4185;41.506;24.938;2023-11-18T04:42:29;92342.13;;;8.87;98.30
8294;BME280;4185;41.506;24.938;2023-11-18T04:44:57;92340.91;;;8.88;97.79
8294;BME280;4185;41.506;24.938;2023-11-18T04:47:24;92346.34;;;8.82;98.43
8294;BME280;4185;41.506;24.938;2023-11-18T04:49:52;92332.56;;;8.80;99.61
8294;BME280;4185;41.506;24.938;2023-11-18T04:52:19;92341.16;;;8.84;99.72
8294;BME280;4185;41.506;24.938;2023-11-18T04:54:46;92344.59;;;8.85;98.86
8294;BME280;4185;41.506;24.938;2023-11-18T04:57:13;92344.84;;;8.81;99.11
8294;BME280;4185;41.506;24.938;2023-11-18T04:59:42;92352.22;;;8.86;99.05
8294;BME280;4185;41.506;24.938;2023-11-18T05:02:09;92348.31;;;8.76;98.91
8294;BME280;4185;41.506;24.938;2023-11-18T05:04:36;92362.63;;;8.71;98.39
8294;BME280;4185;41.506;24.938;2023-11-18T05:07:03;92360.22;;;8.68;99.05
8294;BME280;4185;41.506;24.938;2023-11-18T05:09:31;92351.84;;;8.66;99.77
8294;BME280;4185;41.506;24.938;2023-11-18T05:12:00;92369.06;;;8.62;97.61
8294;BME280;4185;41.506;24.938;2023-11-18T05:14:26;92362.47;;;8.58;96.83
8294;BME280;4185;41.506;24.938;2023-11-18T05:16:55;92360.28;;;8.51;96.99
8294;BME280;4185;41.506;24.938;2023-11-18T05:19:22;92368.13;;;8.54;97.65
8294;BME280;4185;41.506;24.938;2023-11-18T05:21:49;92376.00;;;8.52;96.28
8294;BME280;4185;41.506;24.938;2023-11-18T05:24:15;92362.75;;;8.49;95.01
8294;BME280;4185;41.506;24.938;2023-11-18T05:26:42;92360.28;;;8.51;95.57
8294;BME280;4185;41.506;24.938;2023-11-18T05:29:09;92363.75;;;8.46;92.80
8294;BME280;4185;41.506;24.938;2023-11-18T05:31:41;92364.56;;;8.35;84.53
8294;BME280;4185;41.506;24.938;2023-11-18T05:34:10;92361.34;;;8.20;83.57
8294;BME280;4185;41.506;24.938;2023-11-18T05:36:38;92349.09;;;8.14;81.95
8294;BME280;4185;41.506;24.938;2023-11-18T05:39:05;92354.53;;;8.08;77.48
8294;BME280;4185;41.506;24.938;2023-11-18T05:41:33;92338.53;;;8.10;81.08
8294;BME280;4185;41.506;24.938;2023-11-18T05:44:00;92315.19;;;8.13;82.17
8294;BME280;4185;41.506;24.938;2023-11-18T05:46:27;92309.50;;;8.16;81.21
8294;BME280;4185;41.506;24.938;2023-11-18T05:48:55;92333.59;;;8.20;81.52
8294;BME280;4185;41.506;24.938;2023-11-18T05:51:25;92347.84;;;8.20;82.07
8294;BME280;4185;41.506;24.938;2023-11-18T05:53:54;92344.44;;;8.09;81.28
8294;BME280;4185;41.506;24.938;2023-11-18T05:56:21;92339.03;;;8.09;76.07
8294;BME280;4185;41.506;24.938;2023-11-18T05:58:48;92340.28;;;8.08;77.93
8294;BME280;4185;41.506;24.938;2023-11-18T06:01:16;92344.47;;;8.03;80.36
8294;BME280;4185;41.506;24.938;2023-11-18T06:03:44;92354.56;;;8.03;78.50
8294;BME280;4185;41.506;24.938;2023-11-18T06:06:12;92365.63;;;7.99;77.64
8294;BME280;4185;41.506;24.938;2023-11-18T06:08:42;92370.78;;;7.92;70.73
8294;BME280;4185;41.506;24.938;2023-11-18T06:11:10;92382.09;;;7.85;70.51
8294;BME280;4185;41.506;24.938;2023-11-18T06:13:41;92384.59;;;7.77;71.96
8294;BME280;4185;41.506;24.938;2023-11-18T06:16:15;92378.69;;;7.73;70.30
8294;BME280;4185;41.506;24.938;2023-11-18T06:18:43;92385.59;;;7.69;69.06
8294;BME280;4185;41.506;24.938;2023-11-18T06:21:14;92389.03;;;7.64;66.64
8294;BME280;4185;41.506;24.938;2023-11-18T06:23:43;92384.88;;;7.63;68.03
8294;BME280;4185;41.506;24.938;2023-11-18T06:26:11;92398.38;;;7.63;67.71
8294;BME280;4185;41.506;24.938;2023-11-18T06:28:39;92384.38;;;7.64;66.87
8294;BME280;4185;41.506;24.938;2023-11-18T06:31:06;92389.53;;;7.68;67.61
8294;BME280;4185;41.506;24.938;2023-11-18T06:33:38;92389.53;;;7.68;68.78
8294;BME280;4185;41.506;24.938;2023-11-18T06:36:08;92395.41;;;7.72;67.88
8294;BME280;4185;41.506;24.938;2023-11-18T06:38:36;92399.59;;;7.73;66.95
8294;BME280;4185;41.506;24.938;2023-11-18T06:41:05;92391.47;;;7.73;66.21
8294;BME280;4185;41.506;24.938;2023-11-18T06:43:35;92384.13;;;7.62;62.17
8294;BME280;4185;41.506;24.938;2023-11-18T06:46:18;92396.38;;;7.63;62.75
8294;BME280;4185;41.506;24.938;2023-11-18T06:48:46;92404.25;;;7.67;62.40
8294;BME280;4185;41.506;24.938;2023-11-18T06:51:14;92401.78;;;7.69;64.00
8294;BME280;4185;41.506;24.938;2023-11-18T06:53:41;92417.00;;;7.66;62.02
8294;BME280;4185;41.506;24.938;2023-11-18T06:56:10;92408.91;;;7.66;62.61
8294;BME280;4185;41.506;24.938;2023-11-18T06:58:38;92410.91;;;7.66;63.65
8294;BME280;4185;41.506;24.938;2023-11-18T07:01:05;92405.25;;;7.64;61.58
8294;BME280;4185;41.506;24.938;2023-11-18T07:03:32;92406.22;;;7.61;62.33
8294;BME280;4185;41.506;24.938;2023-11-18T07:05:59;92410.41;;;7.62;62.12
8294;BME280;4185;41.506;24.938;2023-11-18T07:08:25;92403.28;;;7.59;61.96
8294;BME280;4185;41.506;24.938;2023-11-18T07:10:52;92404.50;;;7.63;63.25
8294;BME280;4185;41.506;24.938;2023-11-18T07:13:20;92402.28;;;7.62;61.95
8294;BME280;4185;41.506;24.938;2023-11-18T07:15:48;92389.75;;;7.53;60.99
8294;BME280;4185;41.506;24.938;2023-11-18T07:18:15;92395.41;;;7.55;62.46
8294;BME280;4185;41.506;24.938;2023-11-18T07:20:43;92398.63;;;7.59;61.66
8294;BME280;4185;41.506;24.938;2023-11-18T07:23:10;92401.53;;;7.61;63.31
8294;BME280;4185;41.506;24.938;2023-11-18T07:25:37;92393.47;;;7.56;62.46
8294;BME280;4185;41.506;24.938;2023-11-18T07:28:04;92393.47;;;7.56;60.99
8294;BME280;4185;41.506;24.938;2023-11-18T07:30:35;92391.00;;;7.52;60.70
8294;BME280;4185;41.506;24.938;2023-11-18T07:33:02;92382.41;;;7.48;60.61
8294;BME280;4185;41.506;24.938;2023-11-18T07:35:29;92378.72;;;7.51;61.91
8294;BME280;4185;41.506;24.938;2023-11-18T07:37:56;92375.28;;;7.39;59.96
8294;BME280;4185;41.506;24.938;2023-11-18T07:40:24;92372.34;;;7.37;59.10
8294;BME280;4185;41.506;24.938;2023-11-18T07:42:53;92383.63;;;7.41;60.95
8294;BME280;4185;41.506;24.938;2023-11-18T07:45:21;92387.34;;;7.44;60.88
8294;BME280;4185;41.506;24.938;2023-11-18T07:47:50;92374.28;;;7.42;60.00
8294;BME280;4185;41.506;24.938;2023-11-18T07:50:17;92376.53;;;7.44;59.14
8294;BME280;4185;41.506;24.938;2023-11-18T07:52:45;92394.44;;;7.47;59.02
8294;BME280;4185;41.506;24.938;2023-11-18T07:55:12;92399.84;;;7.41;57.65
8294;BME280;4185;41.506;24.938;2023-11-18T07:57:39;92402.28;;;7.39;58.06
8294;BME280;4185;41.506;24.938;2023-11-18T08:00:07;92399.09;;;7.30;56.42
8294;BME280;4185;41.506;24.938;2023-11-18T08:02:36;92400.59;;;7.20;56.12
8294;BME280;4185;41.506;24.938;2023-11-18T08:05:04;92411.38;;;7.14;55.97
8294;BME280;4185;41.506;24.938;2023-11-18T08:07:33;92412.59;;;7.13;57.38
8294;BME280;4185;41.506;24.938;2023-11-18T08:10:00;92413.81;;;7.12;57.90
8294;BME280;4185;41.506;24.938;2023-11-18T08:12:29;92415.06;;;7.17;58.70
8294;BME280;4185;41.506;24.938;2023-11-18T08:14:56;92410.38;;;7.17;57.63
8294;BME280;4185;41.506;24.938;2023-11-18T08:17:24;92419.50;;;7.25;58.45
8294;BME280;4185;41.506;24.938;2023-11-18T08:19:51;92416.06;;;7.30;57.54
8294;BME280;4185;41.506;24.938;2023-11-18T08:22:20;92418.50;;;7.28;56.19
8294;BME280;4185;41.506;24.938;2023-11-18T08:24:48;92417.50;;;7.20;56.30
8294;BME280;4185;41.506;24.938;2023-11-18T08:27:15;92437.91;;;7.27;58.22
8294;BME280;4185;41.506;24.938;2023-11-18T08:29:42;92421.69;;;7.27;56.22
8294;BME280;4185;41.506;24.938;2023-11-18T08:32:09;92429.06;;;7.32;57.00
8294;BME280;4185;41.506;24.938;2023-11-18T08:34:36;92421.22;;;7.28;55.26
8294;BME280;4185;41.506;24.938;2023-11-18T08:37:03;92418.25;;;7.21;56.34
8294;BME280;4185;41.506;24.938;2023-11-18T08:39:32;92420.44;;;7.22;55.77
8294;BME280;4185;41.506;24.938;2023-11-18T08:41:59;92408.19;;;7.21;55.50
8294;BME280;4185;41.506;24.938;2023-11-18T08:44:25;92409.66;;;7.22;55.76
8294;BME280;4185;41.506;24.938;2023-11-18T08:46:52;92405.75;;;7.23;55.34
8294;BME280;4185;41.506;24.938;2023-11-18T08:49:19;92407.72;;;7.28;55.46
8294;BME280;4185;41.506;24.938;2023-11-18T08:51:47;92402.53;;;7.25;54.42
8294;BME280;4185;41.506;24.938;2023-11-18T08:54:15;92394.69;;;7.27;55.41
8294;BME280;4185;41.506;24.938;2023-11-18T08:56:52;92398.63;;;7.31;55.31
8294;BME280;4185;41.506;24.938;2023-11-18T08:59:20;92391.47;;;7.34;54.99
8294;BME280;4185;41.506;24.938;2023-11-18T09:01:51;92393.69;;;7.41;56.03
8294;BME280;4185;41.506;24.938;2023-11-18T09:04:21;92383.16;;;7.49;55.88
8294;BME280;4185;41.506;24.938;2023-11-18T09:06:49;92382.91;;;7.47;54.22
8294;BME280;4185;41.506;24.938;2023-11-18T09:09:17;92368.16;;;7.42;54.33
8294;BME280;4185;41.506;24.938;2023-11-18T09:11:53;92377.75;;;7.43;54.69
8294;BME280;4185;41.506;24.938;2023-11-18T09:14:22;92372.84;;;7.47;54.79
8294;BME280;4185;41.506;24.938;2023-11-18T09:16:50;92363.00;;;7.50;53.36
8294;BME280;4185;41.506;24.938;2023-11-18T09:19:17;92364.72;;;7.53;53.65
8294;BME280;4185;41.506;24.938;2023-11-18T09:21:46;92359.09;;;7.51;54.31
8294;BME280;4185;41.506;24.938;2023-11-18T09:24:14;92360.53;;;7.52;53.90
8294;BME280;4185;41.506;24.938;2023-11-18T09:26:45;92352.69;;;7.54;53.37
8294;BME280;4185;41.506;24.938;2023-11-18T09:29:16;92360.78;;;7.54;52.20
8294;BME280;4185;41.506;24.938;2023-11-18T09:31:45;92345.31;;;7.49;52.96
8294;BME280;4185;41.506;24.938;2023-11-18T09:34:13;92336.72;;;7.44;53.01
8294;BME280;4185;41.506;24.938;2023-11-18T09:36:42;92342.38;;;7.47;53.58
8294;BME280;4185;41.506;24.938;2023-11-18T09:39:10;92338.44;;;7.47;53.01
8294;BME280;4185;41.506;24.938;2023-11-18T09:41:42;92333.53;;;7.52;52.12
8294;BME280;4185;41.506;24.938;2023-11-18T09:44:09;92323.22;;;7.56;53.27
8294;BME280;4185;41.506;24.938;2023-11-18T09:46:41;92319.03;;;7.60;51.78
8294;BME280;4185;41.506;24.938;2023-11-18T09:49:27;92306.50;;;7.63;50.99
8294;BME280;4185;41.506;24.938;2023-11-18T09:51:59;92318.06;;;7.58;50.77
8294;BME280;4185;41.506;24.938;2023-11-18T09:54:35;92318.53;;;7.56;50.71
8294;BME280;4185;41.506;24.938;2023-11-18T09:57:06;92310.44;;;7.51;51.10
8294;BME280;4185;41.506;24.938;2023-11-18T09:59:41;92325.41;;;7.57;50.84
8294;BME280;4185;41.506;24.938;2023-11-18T10:02:12;92310.16;;;7.65;50.26
8294;BME280;4185;41.506;24.938;2023-11-18T10:04:39;92302.06;;;7.60;49.71
8294;BME280;4185;41.506;24.938;2023-11-18T10:07:06;92307.75;;;7.51;49.35
8294;BME280;4185;41.506;24.938;2023-11-18T10:09:35;92311.16;;;7.57;50.54
8294;BME280;4185;41.506;24.938;2023-11-18T10:12:05;92300.84;;;7.55;49.75
8294;BME280;4185;41.506;24.938;2023-11-18T10:14:34;92318.53;;;7.62;51.28
8294;BME280;4185;41.506;24.938;2023-11-18T10:17:03;92300.09;;;7.66;50.37
8294;BME280;4185;41.506;24.938;2023-11-18T10:19:50;92298.09;;;7.72;49.51
8294;BME280;4185;41.506;24.938;2023-11-18T10:22:21;92302.31;;;7.62;50.57
8294;BME280;4185;41.506;24.938;2023-11-18T10:24:49;92304.75;;;7.60;50.05
8294;BME280;4185;41.506;24.938;2023-11-18T10:27:21;92288.84;;;7.51;48.50
8294;BME280;4185;41.506;24.938;2023-11-18T10:29:49;92302.09;;;7.49;49.25
8294;BME280;4185;41.506;24.938;2023-11-18T10:32:17;92303.31;;;7.47;48.75
8294;BME280;4185;41.506;24.938;2023-11-18T10:34:47;92293.03;;;7.35;49.11
8294;BME280;4185;41.506;24.938;2023-11-18T10:37:17;92316.34;;;7.43;50.56
8294;BME280;4185;41.506;24.938;2023-11-18T10:39:46;92298.41;;;7.46;49.96
8294;BME280;4185;41.506;24.938;2023-11-18T10:42:16;92332.53;;;7.60;50.18
8294;BME280;4185;41.506;24.938;2023-11-18T10:44:54;92288.81;;;7.62;49.59
8294;BME280;4185;41.506;24.938;2023-11-18T10:47:21;92303.56;;;7.61;50.54
8294;BME280;4185;41.506;24.938;2023-11-18T10:49:50;92318.28;;;7.60;49.16
8294;BME280;4185;41.506;24.938;2023-11-18T10:52:19;92315.81;;;7.73;49.74
8294;BME280;4185;41.506;24.938;2023-11-18T10:54:50;92309.41;;;7.65;48.42
8294;BME280;4185;41.506;24.938;2023-11-18T10:57:19;92306.91;;;7.89;48.60
8294;BME280;4185;41.506;24.938;2023-11-18T10:59:58;92313.97;;;8.08;48.36
8294;BME280;4185;41.506;24.938;2023-11-18T11:02:25;92312.94;;;8.28;48.22
8294;BME280;4185;41.506;24.938;2023-11-18T11:04:52;92305.28;;;8.32;47.86
8294;BME280;4185;41.506;24.938;2023-11-18T11:07:21;92308.97;;;8.75;48.12
8294;BME280;4185;41.506;24.938;2023-11-18T11:09:49;92301.81;;;9.13;46.09
8294;BME280;4185;41.506;24.938;2023-11-18T11:12:23;92306.28;;;9.88;45.02
8294;BME280;4185;41.506;24.938;2023-11-18T11:14:59;92300.84;;;10.55;46.09
8294;BME280;4185;41.506;24.938;2023-11-18T11:17:27;92310.75;;;11.21;44.27
8294;BME280;4185;41.506;24.938;2023-11-18T11:20:02;92292.34;;;11.27;43.12
8294;BME280;4185;41.506;24.938;2023-11-18T11:22:46;92310.59;;;10.63;41.62
8294;BME280;4185;41.506;24.938;2023-11-18T11:25:22;92299.56;;;10.56;42.77
8294;BME280;4185;41.506;24.938;2023-11-18T11:27:55;92297.88;;;11.22;42.85
8294;BME280;4185;41.506;24.938;2023-11-18T11:30:29;92316.97;;;11.35;42.50
8294;BME280;4185;41.506;24.938;2023-11-18T11:33:02;92318.19;;;11.02;41.54
8294;BME280;4185;41.506;24.938;2023-11-18T11:35:37;92315.03;;;10.00;43.31
8294;BME280;4185;41.506;24.938;2023-11-18T11:38:11;92306.44;;;9.96;42.52
8294;BME280;4185;41.506;24.938;2023-11-18T11:40:41;92334.81;;;10.61;42.51
8294;BME280;4185;41.506;24.938;2023-11-18T11:43:09;92315.50;;;10.46;43.52
8294;BME280;4185;41.506;24.938;2023-11-18T11:45:37;92311.41;;;10.58;42.62
8294;BME280;4185;41.506;24.938;2023-11-18T11:48:06;92328.69;;;11.11;41.67
8294;BME280;4185;41.506;24.938;2023-11-18T11:50:53;92325.19;;;10.79;42.01
8294;BME280;4185;41.506;24.938;2023-11-18T11:53:26;92334.00;;;10.85;41.18
8294;BME280;4185;41.506;24.938;2023-11-18T11:55:56;92327.28;;;11.04;42.16
8294;BME280;4185;41.506;24.938;2023-11-18T11:58:32;92309.28;;;11.01;41.34
8294;BME280;4185;41.506;24.938;2023-11-18T12:01:15;92340.53;;;11.27;41.67
8294;BME280;4185;41.506;24.938;2023-11-18T12:03:46;92338.88;;;10.07;41.50
8294;BME280;4185;41.506;24.938;2023-11-18T12:06:13;92349.06;;;10.01;44.11
8294;BME280;4185;41.506;24.938;2023-11-18T12:08:43;92364.06;;;10.50;42.57
8294;BME280;4185;41.506;24.938;2023-11-18T12:11:11;92359.16;;;9.76;42.85
8294;BME280;4185;41.506;24.938;2023-11-18T12:13:59;92368.69;;;8.88;44.58
8294;BME280;4185;41.506;24.938;2023-11-18T12:17:01;92383.84;;;9.08;46.05
8294;BME280;4185;41.506;24.938;2023-11-18T12:19:34;92386.09;;;8.98;44.90
8294;BME280;4185;41.506;24.938;2023-11-18T12:22:12;92385.56;;;9.05;45.56
8294;BME280;4185;41.506;24.938;2023-11-18T12:24:45;92392.09;;;9.26;44.84
8294;BME280;4185;41.506;24.938;2023-11-18T12:27:42;92393.78;;;9.29;45.28
8294;BME280;4185;41.506;24.938;2023-11-18T12:30:38;92400.63;;;9.01;45.24
8294;BME280;4185;41.506;24.938;2023-11-18T12:33:09;92412.84;;;8.72;45.53
8294;BME280;4185;41.506;24.938;2023-11-18T12:39:01;92400.16;;;8.45;46.36
8294;BME280;4185;41.506;24.938;2023-11-18T12:41:40;92400.81;;;8.68;46.36
8294;BME280;4185;41.506;24.938;2023-11-18T12:44:15;92395.59;;;8.75;46.15
8294;BME280;4185;41.506;24.938;2023-11-18T12:46:51;92412.97;;;9.66;43.77
8294;BME280;4185;41.506;24.938;2023-11-18T12:49:21;92407.59;;;9.61;43.97
8294;BME280;4185;41.506;24.938;2023-11-18T12:51:50;92403.81;;;9.40;44.35
8294;BME280;4185;41.506;24.938;2023-11-18T12:54:19;92419.19;;;8.80;45.18
8294;BME280;4185;41.506;24.938;2023-11-18T12:56:47;92428.94;;;8.42;45.54
8294;BME280;4185;41.506;24.938;2023-11-18T12:59:16;92424.78;;;8.36;46.35
8294;BME280;4185;41.506;24.938;2023-11-18T13:01:45;92430.06;;;10.39;42.45
8294;BME280;4185;41.506;24.938;2023-11-18T13:04:18;92430.59;;;9.49;43.48
8294;BME280;4185;41.506;24.938;2023-11-18T13:06:47;92430.31;;;9.88;43.99
8294;BME280;4185;41.506;24.938;2023-11-18T13:09:17;92415.34;;;9.11;44.09
8294;BME280;4185;41.506;24.938;2023-11-18T13:11:56;92432.53;;;10.13;43.15
8294;BME280;4185;41.506;24.938;2023-11-18T13:14:24;92430.41;;;9.41;44.50
8294;BME280;4185;41.506;24.938;2023-11-18T13:16:53;92448.41;;;9.74;44.65
8294;BME280;4185;41.506;24.938;2023-11-18T13:19:24;92445.25;;;9.35;44.07
8294;BME280;4185;41.506;24.938;2023-11-18T13:21:51;92442.78;;;9.66;43.80
8294;BME280;4185;41.506;24.938;2023-11-18T13:24:22;92457.00;;;9.02;44.07
8294;BME280;4185;41.506;24.938;2023-11-18T13:26:49;92460.16;;;8.49;44.85
8294;BME280;4185;41.506;24.938;2023-11-18T13:29:17;92471.56;;;7.92;46.00
8294;BME280;4185;41.506;24.938;2023-11-18T13:31:44;92460.50;;;7.68;47.21